createdAt,value
2023-01-07T00:01:07.677Z,11.90
2023-01-07T00:05:10.727Z,11.90
2023-01-07T00:09:16.731Z,11.90
2023-01-07T00:13:20.325Z,11.90
2023-01-07T00:17:22.919Z,11.80
2023-01-07T00:21:27.187Z,11.80
2023-01-07T00:25:29.995Z,11.80
2023-01-07T00:29:33.020Z,11.80
2023-01-07T00:33:36.173Z,11.80
2023-01-07T00:37:51.228Z,11.80
2023-01-07T00:42:12.520Z,11.80
2023-01-07T00:46:15.779Z,11.90
2023-01-07T00:50:18.615Z,11.90
2023-01-07T00:54:21.351Z,11.90
2023-01-07T00:58:26.099Z,12.00
2023-01-07T01:02:29.805Z,12.00
2023-01-07T01:06:32.545Z,12.00
2023-01-07T01:10:35.659Z,12.00
2023-01-07T01:14:38.406Z,12.00
2023-01-07T01:18:42.198Z,12.10
2023-01-07T01:22:45.721Z,12.10
2023-01-07T01:26:48.458Z,12.10
2023-01-07T01:30:57.084Z,12.10
2023-01-07T01:35:03.032Z,12.10
2023-01-07T01:39:06.241Z,12.10
2023-01-07T01:43:30.969Z,12.10
2023-01-07T01:47:48.760Z,12.10
2023-01-07T01:51:59.355Z,12.00
2023-01-07T01:56:10.720Z,12.00
2023-01-07T02:00:16.717Z,11.90
2023-01-07T02:04:27.202Z,11.80
2023-01-07T02:08:30.239Z,11.90
2023-01-07T02:12:36.616Z,11.80
2023-01-07T02:16:57.432Z,11.80
2023-01-07T02:21:27.415Z,11.80
2023-01-07T02:26:02.936Z,11.80
2023-01-07T02:30:43.194Z,11.80
2023-01-07T02:34:56.224Z,11.80
2023-01-07T02:39:07.973Z,11.80
2023-01-07T02:43:22.640Z,11.90
2023-01-07T02:47:54.592Z,11.80
2023-01-07T02:52:08.683Z,11.90
2023-01-07T02:56:31.668Z,11.80
2023-01-07T03:00:34.810Z,11.80
2023-01-07T03:04:50.990Z,11.80
2023-01-07T03:09:03.144Z,11.80
2023-01-07T03:13:17.890Z,11.70
2023-01-07T03:17:31.478Z,11.70
2023-01-07T03:21:36.164Z,11.70
2023-01-07T03:25:48.831Z,11.60
2023-01-07T03:29:54.268Z,11.60
2023-01-07T03:34:06.689Z,11.50
2023-01-07T03:38:10.206Z,11.50
2023-01-07T03:42:34.260Z,11.50
2023-01-07T03:46:38.644Z,11.50
2023-01-07T03:50:42.855Z,11.50
2023-01-07T03:54:45.992Z,11.50
2023-01-07T03:58:49.819Z,11.50
2023-01-07T04:02:52.703Z,11.50
2023-01-07T04:07:03.129Z,11.50
2023-01-07T04:11:06.090Z,11.50
2023-01-07T04:15:10.138Z,11.50
2023-01-07T04:19:12.891Z,11.40
2023-01-07T04:23:16.793Z,11.40
2023-01-07T04:27:22.206Z,11.50
2023-01-07T04:31:25.342Z,11.50
2023-01-07T04:35:29.794Z,11.50
2023-01-07T04:39:32.686Z,11.50
2023-01-07T04:43:36.302Z,11.40
2023-01-07T04:47:41.462Z,11.50
2023-01-07T04:51:44.570Z,11.60
2023-01-07T04:55:48.399Z,11.40
2023-01-07T04:59:52.035Z,11.30
2023-01-07T05:03:54.718Z,11.30
2023-01-07T05:07:57.542Z,11.20
2023-01-07T05:12:01.315Z,11.30
2023-01-07T05:16:07.146Z,11.30
2023-01-07T05:20:11.130Z,11.30
2023-01-07T05:24:15.368Z,11.30
2023-01-07T05:28:18.484Z,11.30
2023-01-07T05:32:21.408Z,11.20
2023-01-07T05:36:24.554Z,11.20
2023-01-07T05:40:27.420Z,11.20
2023-01-07T05:44:31.227Z,11.20
2023-01-07T05:48:34.274Z,11.20
2023-01-07T05:52:36.989Z,11.20
2023-01-07T05:56:39.811Z,11.30
2023-01-07T06:00:42.913Z,11.50
2023-01-07T06:04:45.847Z,11.60
2023-01-07T06:08:48.665Z,11.60
2023-01-07T06:12:51.420Z,11.60
2023-01-07T06:16:54.224Z,11.70
2023-01-07T06:20:57.229Z,11.50
2023-01-07T06:25:00.144Z,11.50
2023-01-07T06:29:03.521Z,11.40
2023-01-07T06:33:06.569Z,11.30
2023-01-07T06:37:09.381Z,11.20
2023-01-07T06:41:12.159Z,11.20
2023-01-07T06:45:14.982Z,11.10
2023-01-07T06:49:17.812Z,11.20
2023-01-07T06:53:20.561Z,11.10
2023-01-07T06:57:23.326Z,11.10
2023-01-07T07:01:26.473Z,11.10
2023-01-07T07:05:29.443Z,11.10
2023-01-07T07:09:32.158Z,11.20
2023-01-07T07:13:35.214Z,11.10
2023-01-07T07:17:37.994Z,11.00
2023-01-07T07:21:41.051Z,11.00
2023-01-07T07:25:43.933Z,11.00
2023-01-07T07:29:47.264Z,11.00
2023-01-07T07:33:49.999Z,10.90
2023-01-07T07:37:52.731Z,10.90
2023-01-07T07:41:56.057Z,11.00
2023-01-07T07:45:59.440Z,11.00
2023-01-07T07:50:02.213Z,11.00
2023-01-07T07:54:05.013Z,11.00
2023-01-07T07:58:07.974Z,11.10
2023-01-07T08:02:14.995Z,11.20
2023-01-07T08:06:17.923Z,11.30
2023-01-07T08:10:21.005Z,11.40
2023-01-07T08:14:24.019Z,11.50
2023-01-07T08:18:26.905Z,11.50
2023-01-07T08:22:29.766Z,11.60
2023-01-07T08:26:33.058Z,11.60
2023-01-07T08:30:36.812Z,11.70
2023-01-07T08:34:39.636Z,11.70
2023-01-07T08:38:42.506Z,11.70
2023-01-07T08:42:45.290Z,11.70
2023-01-07T08:46:48.058Z,11.80
2023-01-07T08:50:53.273Z,11.80
2023-01-07T08:54:55.991Z,11.90
2023-01-07T08:58:58.681Z,12.00
2023-01-07T09:03:03.106Z,12.00
2023-01-07T09:07:05.829Z,12.10
2023-01-07T09:11:08.832Z,12.10
2023-01-07T09:15:12.414Z,12.10
2023-01-07T09:19:15.189Z,12.20
2023-01-07T09:23:18.149Z,12.30
2023-01-07T09:27:22.689Z,12.30
2023-01-07T09:31:26.398Z,12.40
2023-01-07T09:35:29.209Z,12.40
2023-01-07T09:39:32.065Z,12.50
2023-01-07T09:44:00.777Z,12.50
2023-01-07T09:48:22.416Z,12.50
2023-01-07T09:52:36.900Z,12.60
2023-01-07T09:56:40.581Z,12.60
2023-01-07T10:01:17.766Z,12.60
2023-01-07T10:05:40.926Z,12.80
2023-01-07T10:10:05.025Z,12.80
2023-01-07T10:14:43.987Z,12.80
2023-01-07T10:19:07.214Z,12.90
2023-01-07T10:23:14.304Z,13.00
2023-01-07T10:27:32.382Z,13.00
2023-01-07T10:31:36.665Z,13.10
2023-01-07T10:35:41.138Z,13.10
2023-01-07T10:40:08.938Z,13.10
2023-01-07T10:44:23.073Z,13.30
2023-01-07T10:49:03.428Z,13.30
2023-01-07T10:53:44.672Z,13.40
2023-01-07T10:57:48.947Z,13.60
2023-01-07T11:01:56.393Z,13.60
2023-01-07T11:06:05.955Z,13.60
2023-01-07T11:10:17.935Z,13.60
2023-01-07T11:14:24.638Z,13.60
2023-01-07T11:18:59.336Z,13.60
2023-01-07T11:23:19.633Z,13.80
2023-01-07T11:27:26.662Z,13.80
2023-01-07T11:31:47.679Z,13.90
2023-01-07T11:35:57.310Z,13.90
2023-01-07T11:40:02.503Z,13.90
2023-01-07T11:44:16.472Z,14.00
2023-01-07T11:48:32.955Z,14.10
2023-01-07T11:52:35.814Z,14.00
2023-01-07T11:56:38.643Z,14.00
2023-01-07T12:00:41.365Z,14.00
2023-01-07T12:04:44.826Z,14.00
2023-01-07T12:09:24.670Z,14.10
2023-01-07T12:13:28.104Z,14.10
2023-01-07T12:17:34.750Z,14.20
2023-01-07T12:21:47.428Z,14.20
2023-01-07T12:26:40.956Z,14.30
2023-01-07T12:30:54.665Z,14.40
2023-01-07T12:35:20.482Z,14.40
2023-01-07T12:39:26.654Z,14.40
2023-01-07T12:43:45.133Z,14.30
2023-01-07T12:47:54.799Z,14.30
2023-01-07T12:52:03.144Z,14.30
2023-01-07T12:56:23.738Z,14.20
2023-01-07T13:00:31.875Z,14.10
2023-01-07T13:05:12.070Z,14.10
2023-01-07T13:09:26.846Z,14.00
2023-01-07T13:13:48.184Z,14.00
2023-01-07T13:17:53.987Z,14.00
2023-01-07T13:21:57.242Z,14.00
2023-01-07T13:26:18.860Z,14.00
2023-01-07T13:30:50.979Z,14.10
2023-01-07T13:35:18.530Z,14.00
2023-01-07T13:39:27.271Z,14.00
2023-01-07T13:43:51.216Z,14.00
2023-01-07T13:47:58.591Z,14.00
2023-01-07T13:52:21.115Z,14.00
2023-01-07T13:56:23.901Z,14.10
2023-01-07T14:00:38.088Z,14.00
2023-01-07T14:05:03.352Z,14.00
2023-01-07T14:09:13.564Z,14.10
2023-01-07T14:13:42.697Z,14.10
2023-01-07T14:18:30.195Z,14.10
2023-01-07T14:22:41.924Z,14.00
2023-01-07T14:27:02.952Z,14.00
2023-01-07T14:31:06.130Z,14.00
2023-01-07T14:35:13.302Z,14.00
2023-01-07T14:39:35.099Z,13.90
2023-01-07T14:43:41.231Z,13.90
2023-01-07T14:47:44.023Z,13.80
2023-01-07T14:52:16.135Z,13.70
2023-01-07T14:56:46.917Z,13.80
2023-01-07T15:01:03.191Z,13.70
2023-01-07T15:05:19.097Z,13.70
2023-01-07T15:10:01.924Z,13.70
2023-01-07T15:14:35.406Z,13.60
2023-01-07T15:18:49.721Z,13.60
2023-01-07T15:23:04.926Z,13.60
2023-01-07T15:27:19.795Z,13.50
2023-01-07T15:31:38.711Z,13.50
2023-01-07T15:35:44.399Z,13.40
2023-01-07T15:39:52.831Z,13.30
2023-01-07T15:43:56.766Z,13.30
2023-01-07T15:48:10.651Z,13.30
2023-01-07T15:52:25.105Z,13.20
2023-01-07T15:56:28.780Z,13.20
2023-01-07T16:00:32.629Z,13.20
2023-01-07T16:04:38.637Z,13.10
2023-01-07T16:08:44.586Z,13.10
2023-01-07T16:12:55.856Z,13.00
2023-01-07T16:17:25.821Z,13.00
2023-01-07T16:21:37.665Z,13.00
2023-01-07T16:25:43.385Z,13.00
2023-01-07T16:29:52.568Z,12.90
2023-01-07T16:33:58.311Z,12.90
2023-01-07T16:38:03.735Z,12.90
2023-01-07T16:42:24.760Z,13.00
2023-01-07T16:46:36.249Z,13.00
2023-01-07T16:50:42.046Z,13.00
2023-01-07T16:54:46.397Z,13.00
2023-01-07T16:58:55.662Z,12.90
2023-01-07T17:03:00.954Z,12.90
2023-01-07T17:07:04.361Z,12.80
2023-01-07T17:11:40.042Z,12.60
2023-01-07T17:15:44.054Z,12.60
2023-01-07T17:19:53.205Z,12.50
2023-01-07T17:23:55.955Z,12.50
2023-01-07T17:28:06.564Z,12.50
2023-01-07T17:32:12.741Z,12.50
2023-01-07T17:36:37.889Z,12.50
2023-01-07T17:40:41.946Z,12.50
2023-01-07T17:44:45.775Z,12.50
2023-01-07T17:48:48.473Z,12.40
2023-01-07T17:52:54.785Z,12.50
2023-01-07T17:57:00.015Z,12.40
2023-01-07T18:01:07.188Z,12.40
2023-01-07T18:05:19.200Z,12.30
2023-01-07T18:09:21.928Z,12.30
2023-01-07T18:13:26.532Z,12.30
2023-01-07T18:17:29.794Z,12.30
2023-01-07T18:21:32.553Z,12.30
2023-01-07T18:25:35.312Z,12.20
2023-01-07T18:29:38.017Z,12.20
2023-01-07T18:33:40.942Z,12.10
2023-01-07T18:37:43.755Z,12.10
2023-01-07T18:41:48.809Z,12.10
2023-01-07T18:45:51.721Z,12.10
2023-01-07T18:49:54.703Z,12.00
2023-01-07T18:53:57.479Z,12.00
2023-01-07T18:58:00.529Z,12.00
2023-01-07T19:02:03.667Z,12.00
2023-01-07T19:06:08.434Z,11.90
2023-01-07T19:10:11.161Z,11.90
2023-01-07T19:14:15.290Z,11.80
2023-01-07T19:18:18.216Z,11.80
2023-01-07T19:22:21.078Z,11.80
2023-01-07T19:26:23.775Z,11.80
2023-01-07T19:30:26.875Z,11.80
2023-01-07T19:34:29.728Z,11.90
2023-01-07T19:38:33.073Z,11.80
2023-01-07T19:42:35.788Z,11.80
2023-01-07T19:46:40.155Z,11.80
2023-01-07T19:50:42.949Z,11.80
2023-01-07T19:54:45.790Z,11.90
2023-01-07T19:58:52.369Z,12.00
2023-01-07T20:02:55.201Z,12.00
2023-01-07T20:06:57.901Z,12.10
2023-01-07T20:11:01.240Z,12.20
2023-01-07T20:15:04.237Z,12.30
2023-01-07T20:19:07.635Z,12.30
2023-01-07T20:23:10.360Z,12.40
2023-01-07T20:27:13.138Z,12.40
2023-01-07T20:31:17.423Z,12.40
2023-01-07T20:35:20.584Z,12.40
2023-01-07T20:39:23.539Z,12.50
2023-01-07T20:43:26.283Z,12.40
2023-01-07T20:47:29.207Z,12.50
2023-01-07T20:51:32.192Z,12.50
2023-01-07T20:55:35.779Z,12.50
2023-01-07T20:59:38.591Z,12.50
2023-01-07T21:03:44.964Z,12.50
2023-01-07T21:07:50.161Z,12.50
2023-01-07T21:11:53.210Z,12.60
2023-01-07T21:16:03.122Z,12.60
2023-01-07T21:20:08.245Z,12.60
2023-01-07T21:24:12.227Z,12.50
2023-01-07T21:28:15.024Z,12.50
2023-01-07T21:32:17.800Z,12.50
2023-01-07T21:36:20.608Z,12.50
2023-01-07T21:40:23.911Z,12.50
2023-01-07T21:44:26.666Z,12.50
2023-01-07T21:48:33.397Z,12.50
2023-01-07T21:52:36.637Z,12.50
2023-01-07T21:56:39.372Z,12.40
2023-01-07T22:00:42.463Z,12.40
2023-01-07T22:04:46.254Z,12.40
2023-01-07T22:08:50.051Z,12.40
2023-01-07T22:12:53.295Z,12.40
2023-01-07T22:16:56.287Z,12.50
2023-01-07T22:20:59.019Z,12.50
2023-01-07T22:25:06.048Z,12.50
2023-01-07T22:29:09.715Z,12.50
2023-01-07T22:33:12.384Z,12.50
2023-01-07T22:37:18.847Z,12.50
2023-01-07T22:41:21.680Z,12.60
2023-01-07T22:45:43.713Z,12.50
2023-01-07T22:49:47.834Z,12.60
2023-01-07T22:53:52.389Z,12.50
2023-01-07T22:57:55.304Z,12.50
2023-01-07T23:01:58.237Z,12.50
2023-01-07T23:06:01.600Z,12.60
2023-01-07T23:10:04.702Z,12.70
2023-01-07T23:14:07.690Z,12.60
2023-01-07T23:18:12.149Z,12.60
2023-01-07T23:22:14.980Z,12.60
2023-01-07T23:26:18.323Z,12.60
2023-01-07T23:30:21.141Z,12.60
2023-01-07T23:34:24.091Z,12.50
2023-01-07T23:38:26.826Z,12.50
2023-01-07T23:42:29.489Z,12.50
2023-01-07T23:46:32.273Z,12.40
2023-01-07T23:50:35.177Z,12.40
2023-01-07T23:54:37.963Z,12.40
2023-01-07T23:58:41.097Z,12.40
